createdAt,value
2018-11-22T07:35:26.850Z,97.30
2018-11-22T07:38:00.578Z,97.10
2018-11-22T07:40:34.952Z,96.80
2018-11-22T07:43:08.804Z,96.10
2018-11-22T07:45:43.197Z,94.90
2018-11-22T07:48:17.088Z,94.90
2018-11-22T07:50:50.388Z,94.90
2018-11-22T07:53:23.704Z,95.10
2018-11-22T07:55:57.124Z,95.30
2018-11-22T07:58:30.771Z,94.90
2018-11-22T08:01:04.426Z,94.60
2018-11-22T08:03:37.847Z,94.90
2018-11-22T08:06:11.371Z,95.20
2018-11-22T08:08:45.577Z,94.50
2018-11-22T08:11:19.367Z,94.30
2018-11-22T08:13:52.643Z,92.20
2018-11-22T08:16:26.082Z,91.20
2018-11-22T08:18:59.859Z,90.10
2018-11-22T08:21:38.233Z,89.30
2018-11-22T08:24:07.089Z,90.70
2018-11-22T08:26:40.755Z,90.90
2018-11-22T08:29:14.430Z,91.00
2018-11-22T08:31:47.820Z,91.30
2018-11-22T08:34:21.552Z,91.40
2018-11-22T08:36:55.177Z,91.70
2018-11-22T08:39:28.714Z,91.30
2018-11-22T08:42:02.554Z,91.50
2018-11-22T08:44:36.135Z,92.10
2018-11-22T08:47:12.196Z,91.90
2018-11-22T08:49:43.607Z,92.00
2018-11-22T08:52:17.081Z,92.40
2018-11-22T08:54:50.475Z,92.50
2018-11-22T08:57:24.380Z,91.40
2018-11-22T08:59:57.862Z,91.90
2018-11-22T09:02:32.672Z,92.60
2018-11-22T09:05:06.292Z,92.70
2018-11-22T09:07:40.020Z,92.10
2018-11-22T09:10:17.387Z,92.60
2018-11-22T09:12:51.725Z,91.80
2018-11-22T09:15:31.304Z,91.80
2018-11-22T09:18:00.943Z,92.00
2018-11-22T09:20:35.227Z,92.20
2018-11-22T09:23:08.850Z,92.60
2018-11-22T09:25:42.330Z,92.90
2018-11-22T09:28:15.740Z,92.30
2018-11-22T09:30:51.770Z,93.00
2018-11-22T09:33:25.438Z,92.80
2018-11-22T09:36:00.176Z,93.10
2018-11-22T09:38:33.626Z,92.80
2018-11-22T09:41:07.306Z,92.80
2018-11-22T09:43:42.300Z,92.30
2018-11-22T09:46:16.849Z,92.10
2018-11-22T09:48:50.133Z,92.40
2018-11-22T09:51:23.390Z,92.80
2018-11-22T09:53:57.288Z,93.20
2018-11-22T09:56:30.666Z,93.10
2018-11-22T09:59:03.989Z,92.60
2018-11-22T10:01:37.386Z,92.30
2018-11-22T10:04:10.628Z,92.20
2018-11-22T10:06:44.535Z,92.40
2018-11-22T10:09:18.058Z,91.50
2018-11-22T10:11:51.620Z,92.00
2018-11-22T10:14:25.397Z,92.00
2018-11-22T10:16:59.332Z,91.20
2018-11-22T10:19:32.967Z,91.50
2018-11-22T10:22:06.879Z,92.10
2018-11-22T10:24:41.866Z,91.80
2018-11-22T10:27:15.233Z,92.00
2018-11-22T10:29:48.987Z,92.50
2018-11-22T10:32:22.502Z,92.10
2018-11-22T10:34:56.034Z,91.80
2018-11-22T12:16:56.907Z,94.90
2018-11-22T12:19:29.063Z,95.20
2018-11-22T12:22:00.494Z,95.30
2018-11-22T12:24:32.433Z,95.50
2018-11-22T12:27:04.591Z,95.00
2018-11-22T12:29:36.530Z,95.10
2018-11-22T12:32:13.394Z,95.10
2018-11-22T12:34:50.484Z,94.70
2018-11-22T12:37:27.041Z,95.10
2018-11-22T12:39:59.855Z,94.90
2018-11-22T12:42:31.808Z,95.20
2018-11-22T12:45:04.979Z,94.50
2018-11-22T12:47:37.100Z,94.50
2018-11-22T12:50:11.097Z,94.60
2018-11-22T12:52:43.067Z,94.50
2018-11-22T12:55:15.011Z,94.30
2018-11-22T12:57:47.007Z,94.30
2018-11-22T13:00:19.458Z,94.80
2018-11-22T13:02:51.435Z,94.50
2018-11-22T13:05:23.373Z,94.50
2018-11-22T13:07:55.300Z,94.80
2018-11-22T13:10:27.234Z,95.30
2018-11-22T13:12:59.428Z,95.30
2018-11-22T13:15:31.563Z,94.80
2018-11-22T13:18:03.874Z,95.10
2018-11-22T13:20:35.709Z,95.10
2018-11-22T13:23:07.809Z,95.00
2018-11-22T13:25:39.602Z,95.30
2018-11-22T13:28:11.336Z,95.30
2018-11-22T13:30:43.255Z,95.20
2018-11-22T13:33:15.471Z,95.20
2018-11-22T13:35:47.832Z,95.00
2018-11-22T13:38:20.046Z,94.90
2018-11-22T13:40:52.133Z,95.10
2018-11-22T13:43:25.145Z,95.30
2018-11-22T13:45:57.389Z,95.30
2018-11-22T13:48:29.141Z,95.50
2018-11-22T13:51:01.269Z,95.60
2018-11-22T13:53:33.817Z,96.10
2018-11-22T13:56:06.076Z,96.30
2018-11-22T13:58:37.946Z,96.20
2018-11-22T14:01:10.215Z,96.30
2018-11-22T14:03:42.454Z,95.80
2018-11-22T14:06:15.308Z,96.00
2018-11-22T14:08:47.118Z,96.30
2018-11-22T14:11:19.409Z,95.80
2018-11-22T14:13:51.234Z,95.50
2018-11-22T14:16:23.633Z,95.70
2018-11-22T14:18:55.337Z,95.70
2018-11-22T14:21:28.041Z,95.80
2018-11-22T14:24:00.385Z,95.90
2018-11-22T14:26:33.407Z,96.00
2018-11-22T14:29:05.566Z,95.90
2018-11-22T14:31:37.716Z,96.00
2018-11-22T14:34:09.768Z,96.30
2018-11-22T14:36:41.899Z,96.60
2018-11-22T14:39:14.903Z,96.60
2018-11-22T14:41:47.493Z,96.70
2018-11-22T14:44:19.806Z,96.60
2018-11-22T14:46:52.189Z,96.70
2018-11-22T14:49:24.321Z,96.40
2018-11-22T14:51:57.792Z,96.50
2018-11-22T14:54:30.271Z,96.70
2018-11-22T14:57:02.619Z,96.70
2018-11-22T14:59:35.670Z,97.00
2018-11-22T15:02:08.171Z,97.10
2018-11-22T15:04:40.180Z,97.00
2018-11-22T15:07:13.078Z,97.10
2018-11-22T15:09:45.241Z,96.80
2018-11-22T15:12:17.681Z,96.70
2018-11-22T15:14:50.075Z,97.10
2018-11-22T15:17:22.200Z,97.10
2018-11-22T15:19:54.333Z,97.20
2018-11-22T15:22:26.762Z,97.10
2018-11-22T15:24:59.363Z,97.30
2018-11-22T15:27:31.342Z,97.20
2018-11-22T15:30:03.467Z,97.30
2018-11-22T15:32:35.978Z,97.50
2018-11-22T15:35:11.359Z,97.60
2018-11-22T15:37:43.939Z,97.80
2018-11-22T15:40:22.434Z,97.90
2018-11-22T15:42:56.282Z,97.80
2018-11-22T15:45:34.804Z,98.00
2018-11-22T15:48:01.945Z,98.10
2018-11-22T15:50:34.194Z,98.20
2018-11-22T15:53:06.665Z,98.20
2018-11-22T15:55:38.767Z,98.10
2018-11-22T15:58:10.812Z,98.20
2018-11-22T16:00:43.410Z,98.60
2018-11-22T16:03:15.362Z,98.30
2018-11-22T16:05:47.454Z,98.40
2018-11-22T16:08:20.172Z,98.80
2018-11-22T16:10:52.451Z,98.20
2018-11-22T16:13:24.729Z,98.40
2018-11-22T16:15:56.706Z,98.50
2018-11-22T16:18:29.657Z,98.40
2018-11-22T16:21:01.947Z,98.40
2018-11-22T16:23:34.192Z,98.50
2018-11-22T16:26:06.832Z,98.60
2018-11-22T16:28:39.154Z,98.60
2018-11-22T16:31:12.788Z,98.60
2018-11-22T16:33:46.795Z,98.80
2018-11-22T16:36:20.524Z,98.80
2018-11-22T16:38:54.628Z,98.70
2018-11-22T16:41:28.263Z,98.70
2018-11-22T16:44:03.288Z,98.70
2018-11-22T16:46:36.413Z,98.70
2018-11-22T16:49:10.331Z,98.70
2018-11-22T16:51:44.199Z,98.70
2018-11-22T16:54:17.959Z,98.90
2018-11-22T16:56:51.719Z,99.00
2018-11-22T16:59:25.076Z,99.00
2018-11-22T17:01:59.275Z,99.10
2018-11-22T17:04:33.043Z,99.20
2018-11-22T17:07:06.591Z,99.30
2018-11-22T17:09:40.268Z,99.30
2018-11-22T17:12:13.830Z,99.50
2018-11-22T17:14:48.585Z,99.60
2018-11-22T17:17:23.760Z,99.70
2018-11-22T17:19:57.404Z,99.90
2018-11-22T17:22:31.314Z,99.80
2018-11-22T17:25:06.042Z,99.80
2018-11-22T17:27:40.674Z,99.90
2018-11-22T17:30:20.678Z,99.70
2018-11-22T17:32:52.501Z,99.80
2018-11-22T17:35:26.362Z,99.90
2018-11-22T17:37:59.675Z,99.90
2018-11-22T17:40:36.484Z,99.90
2018-11-22T17:43:08.775Z,99.90
2018-11-22T17:45:42.521Z,99.90
2018-11-22T17:48:14.105Z,99.90
2018-11-22T17:50:47.571Z,99.90
2018-11-22T17:53:20.082Z,99.90
2018-11-22T17:55:52.648Z,99.90
2018-11-22T17:58:24.827Z,99.90
2018-11-22T18:00:57.193Z,99.90
2018-11-22T18:03:29.544Z,99.90
2018-11-22T18:06:02.076Z,99.90
2018-11-22T18:08:34.956Z,99.90
2018-11-22T18:11:07.270Z,99.90
2018-11-22T18:13:39.484Z,99.90
2018-11-22T18:16:12.443Z,99.90
2018-11-22T18:18:44.810Z,99.90
2018-11-22T18:21:17.703Z,99.90
2018-11-22T18:23:50.466Z,99.90
2018-11-22T18:26:22.719Z,99.90
2018-11-22T18:28:55.346Z,99.90
2018-11-22T18:31:28.004Z,99.90
2018-11-22T18:34:01.501Z,99.90
2018-11-22T18:36:33.808Z,99.90
2018-11-22T18:39:07.819Z,99.90
2018-11-22T18:41:40.327Z,99.90
2018-11-22T18:44:12.987Z,99.90
2018-11-22T18:46:45.318Z,99.90
2018-11-22T18:49:17.740Z,99.90
2018-11-22T18:51:49.719Z,99.90
2018-11-22T18:54:22.257Z,99.90
2018-11-22T18:56:54.763Z,99.90
2018-11-22T18:59:27.007Z,99.90
2018-11-22T19:01:58.845Z,99.90
2018-11-22T19:04:31.213Z,99.90
2018-11-22T19:07:03.593Z,99.90
2018-11-22T19:09:36.030Z,99.90
2018-11-22T19:12:08.606Z,99.90
2018-11-22T19:14:40.730Z,99.90
2018-11-22T19:17:13.300Z,99.90
2018-11-22T19:19:45.465Z,99.90
2018-11-22T19:22:17.940Z,99.90
2018-11-22T19:24:50.229Z,99.90
2018-11-22T19:27:22.219Z,99.90
2018-11-22T19:29:54.225Z,99.90
2018-11-22T19:32:25.749Z,99.90
2018-11-22T19:34:58.666Z,99.90
2018-11-22T19:37:30.933Z,99.90
2018-11-22T19:40:03.109Z,99.90
2018-11-22T19:42:35.641Z,99.90
2018-11-22T19:45:10.751Z,99.90
2018-11-22T19:47:43.201Z,99.90
2018-11-22T19:50:17.448Z,99.90
2018-11-22T19:52:49.926Z,99.90
2018-11-22T19:55:23.590Z,99.90
2018-11-22T19:57:57.404Z,99.90
2018-11-22T20:00:29.914Z,99.90
2018-11-22T20:03:02.831Z,99.90
2018-11-22T20:05:36.356Z,99.90
2018-11-22T20:08:10.953Z,99.90
2018-11-22T20:10:44.233Z,99.90
2018-11-22T20:13:17.042Z,99.90
2018-11-22T20:15:50.956Z,99.90
2018-11-22T20:18:22.654Z,99.90
2018-11-22T20:20:55.436Z,99.90
2018-11-22T20:23:28.672Z,99.90
2018-11-22T20:26:01.717Z,99.90
2018-11-22T20:28:34.020Z,99.90
2018-11-22T20:31:06.912Z,99.90
2018-11-22T20:33:39.791Z,99.90
2018-11-22T20:36:12.287Z,99.90
2018-11-22T20:38:44.200Z,99.90
2018-11-22T20:41:16.366Z,99.90
2018-11-22T20:43:48.350Z,99.90
2018-11-22T20:46:21.547Z,99.90
2018-11-22T20:48:53.912Z,99.90
2018-11-22T20:51:26.781Z,99.90
2018-11-22T20:53:59.196Z,99.90
2018-11-22T20:56:32.070Z,99.90
2018-11-22T20:59:04.241Z,99.90
2018-11-22T21:01:36.651Z,99.90
2018-11-22T21:04:09.330Z,99.90
2018-11-22T21:06:41.697Z,99.90
2018-11-22T21:09:13.918Z,99.90
2018-11-22T21:11:47.575Z,99.90
2018-11-22T21:14:20.955Z,99.90
2018-11-22T21:16:53.399Z,99.90
2018-11-22T21:19:25.516Z,99.90
2018-11-22T21:21:57.945Z,99.90
2018-11-22T21:24:30.252Z,99.90
2018-11-22T21:27:03.978Z,99.90
2018-11-22T21:29:36.607Z,99.90
2018-11-22T21:32:09.120Z,99.90
2018-11-22T21:34:42.093Z,99.90
2018-11-22T21:37:14.440Z,99.90
2018-11-22T21:39:46.466Z,99.90
2018-11-22T21:42:18.579Z,99.90
2018-11-22T21:44:50.442Z,99.90
2018-11-22T21:47:22.597Z,99.90
2018-11-22T21:49:54.918Z,99.90
2018-11-22T21:52:27.177Z,99.90
2018-11-22T21:54:59.114Z,99.90
2018-11-22T21:57:31.546Z,99.90
2018-11-22T22:00:04.313Z,99.90
2018-11-22T22:02:36.522Z,99.90
2018-11-22T22:05:09.227Z,99.90
2018-11-22T22:07:41.644Z,99.90
2018-11-22T22:10:14.029Z,99.90
2018-11-22T22:12:46.081Z,99.90
2018-11-22T22:15:19.625Z,99.90
2018-11-22T22:17:51.834Z,99.90
2018-11-22T22:20:24.883Z,99.90
2018-11-22T22:22:56.899Z,99.90
2018-11-22T22:25:29.026Z,99.90
2018-11-22T22:28:01.742Z,99.90
2018-11-22T22:30:34.824Z,99.90
2018-11-22T22:33:07.560Z,99.90
2018-11-22T22:35:39.740Z,99.90
2018-11-22T22:38:11.886Z,99.90
2018-11-22T22:40:44.029Z,99.90
2018-11-22T22:43:16.178Z,99.90
2018-11-22T22:45:48.351Z,99.90
2018-11-22T22:48:20.574Z,99.90
2018-11-22T22:50:52.478Z,99.90
2018-11-22T22:53:24.508Z,99.90
2018-11-22T22:55:56.560Z,99.90
2018-11-22T22:58:28.381Z,99.90
2018-11-22T23:01:02.672Z,99.90
2018-11-22T23:03:34.874Z,99.90
2018-11-22T23:06:07.650Z,99.90
2018-11-22T23:08:39.981Z,99.90
2018-11-22T23:11:12.370Z,99.90
2018-11-22T23:13:44.305Z,99.90
2018-11-22T23:16:16.270Z,99.90
2018-11-22T23:18:48.457Z,99.90
2018-11-22T23:21:21.969Z,99.90
2018-11-22T23:23:53.636Z,99.90
2018-11-22T23:26:25.665Z,99.90
2018-11-22T23:28:57.818Z,99.90
2018-11-22T23:31:31.106Z,99.90
2018-11-22T23:34:03.233Z,99.90
2018-11-22T23:36:35.341Z,99.90
2018-11-22T23:39:09.935Z,99.90
2018-11-22T23:41:42.657Z,99.90
2018-11-22T23:44:15.262Z,99.90
2018-11-22T23:46:47.377Z,99.90
2018-11-22T23:49:19.481Z,99.90
2018-11-22T23:51:51.452Z,99.90
2018-11-22T23:54:23.278Z,99.90
2018-11-22T23:56:55.409Z,99.90
2018-11-22T23:59:27.282Z,99.90
